Terminal Aerodrome Forecast
Issued by NWS

Home | Current Version | Previous Version | Text Only | Print | Product List | Glossary On
Versions: 1 2 3 4 5 6 7 8 9 10 11 12 13 14 15
000
FTUS44 KCRP 280700 AAA
TAFALI
TAF AMD
KALI 280755Z 2808/2906 02012KT P6SM -RA SCT035 BKN090
      TEMPO 2808/2811 5SM TSRA BKN030CB OVC090
     FM281100 35010KT P6SM -RA OVC025
      TEMPO 2811/2815 3SM SHRA OVC015
     FM281600 35014G20KT P6SM VCSH OVC025
     FM281900 34012KT P6SM SCT030 BKN040
     FM290400 VRB03KT P6SM FEW035=

USA.gov is the U.S. government's official web portal to all federal, state and local government web resources and services.